sensor_id;sensor_type;location;lat;lon;timestamp;P1;durP1;ratioP1;P2;durP2;ratioP2
43449;SDS011;29041;42.266;23.110;2023-09-19T00:02:10;3.92;;;2.83;;
43449;SDS011;29041;42.266;23.110;2023-09-19T00:04:57;4.10;;;2.42;;
43449;SDS011;29041;42.266;23.110;2023-09-19T00:07:44;3.00;;;2.20;;
43449;SDS011;29041;42.266;23.110;2023-09-19T00:10:33;4.85;;;2.17;;
43449;SDS011;29041;42.266;23.110;2023-09-19T00:13:21;3.90;;;2.15;;
43449;SDS011;29041;42.266;23.110;2023-09-19T00:16:10;2.58;;;2.38;;
43449;SDS011;29041;42.266;23.110;2023-09-19T00:19:01;5.72;;;2.55;;
43449;SDS011;29041;42.266;23.110;2023-09-19T00:21:53;4.07;;;2.45;;
43449;SDS011;29041;42.266;23.110;2023-09-19T00:24:40;3.65;;;2.40;;
43449;SDS011;29041;42.266;23.110;2023-09-19T00:27:28;5.65;;;2.42;;
43449;SDS011;29041;42.266;23.110;2023-09-19T00:30:15;3.60;;;2.38;;
43449;SDS011;29041;42.266;23.110;2023-09-19T00:33:05;2.60;;;2.22;;
43449;SDS011;29041;42.266;23.110;2023-09-19T00:35:55;3.35;;;2.50;;
43449;SDS011;29041;42.266;23.110;2023-09-19T00:38:43;4.10;;;2.50;;
43449;SDS011;29041;42.266;23.110;2023-09-19T00:41:32;2.50;;;1.90;;
43449;SDS011;29041;42.266;23.110;2023-09-19T00:44:21;5.28;;;2.67;;
43449;SDS011;29041;42.266;23.110;2023-09-19T00:47:08;2.95;;;2.38;;
43449;SDS011;29041;42.266;23.110;2023-09-19T00:50:00;5.10;;;2.40;;
43449;SDS011;29041;42.266;23.110;2023-09-19T00:52:53;3.75;;;2.38;;
43449;SDS011;29041;42.266;23.110;2023-09-19T00:55:42;4.55;;;2.55;;
43449;SDS011;29041;42.266;23.110;2023-09-19T00:58:29;2.90;;;2.53;;
43449;SDS011;29041;42.266;23.110;2023-09-19T01:01:20;3.85;;;2.50;;
43449;SDS011;29041;42.266;23.110;2023-09-19T01:04:08;3.40;;;2.38;;
43449;SDS011;29041;42.266;23.110;2023-09-19T01:06:55;4.97;;;3.00;;
43449;SDS011;29041;42.266;23.110;2023-09-19T01:09:45;3.67;;;2.20;;
43449;SDS011;29041;42.266;23.110;2023-09-19T01:12:34;4.30;;;2.35;;
43449;SDS011;29041;42.266;23.110;2023-09-19T01:15:33;3.67;;;2.00;;
43449;SDS011;29041;42.266;23.110;2023-09-19T01:18:34;3.65;;;2.20;;
43449;SDS011;29041;42.266;23.110;2023-09-19T01:21:28;6.28;;;2.75;;
43449;SDS011;29041;42.266;23.110;2023-09-19T01:28:10;5.45;;;2.97;;
43449;SDS011;29041;42.266;23.110;2023-09-19T01:31:09;3.58;;;2.17;;
43449;SDS011;29041;42.266;23.110;2023-09-19T01:33:59;3.38;;;2.42;;
43449;SDS011;29041;42.266;23.110;2023-09-19T01:36:49;2.55;;;1.85;;
43449;SDS011;29041;42.266;23.110;2023-09-19T01:39:36;4.68;;;2.90;;
43449;SDS011;29041;42.266;23.110;2023-09-19T01:42:28;3.13;;;2.10;;
43449;SDS011;29041;42.266;23.110;2023-09-19T01:45:23;3.15;;;2.47;;
43449;SDS011;29041;42.266;23.110;2023-09-19T01:48:22;6.30;;;3.60;;
43449;SDS011;29041;42.266;23.110;2023-09-19T01:51:18;4.07;;;2.60;;
43449;SDS011;29041;42.266;23.110;2023-09-19T01:54:12;5.50;;;2.72;;
43449;SDS011;29041;42.266;23.110;2023-09-19T01:57:05;5.63;;;2.58;;
43449;SDS011;29041;42.266;23.110;2023-09-19T01:59:58;7.50;;;3.30;;
43449;SDS011;29041;42.266;23.110;2023-09-19T02:02:51;3.95;;;2.63;;
43449;SDS011;29041;42.266;23.110;2023-09-19T02:05:42;4.03;;;2.58;;
43449;SDS011;29041;42.266;23.110;2023-09-19T02:08:35;3.45;;;2.95;;
43449;SDS011;29041;42.266;23.110;2023-09-19T02:11:22;5.28;;;3.45;;
43449;SDS011;29041;42.266;23.110;2023-09-19T02:14:10;4.90;;;2.65;;
43449;SDS011;29041;42.266;23.110;2023-09-19T02:16:57;4.15;;;2.50;;
43449;SDS011;29041;42.266;23.110;2023-09-19T02:19:45;7.35;;;4.00;;
43449;SDS011;29041;42.266;23.110;2023-09-19T02:22:33;3.70;;;2.80;;
43449;SDS011;29041;42.266;23.110;2023-09-19T02:25:20;4.28;;;2.92;;
43449;SDS011;29041;42.266;23.110;2023-09-19T02:28:07;6.78;;;3.67;;
43449;SDS011;29041;42.266;23.110;2023-09-19T02:30:54;6.20;;;3.33;;
43449;SDS011;29041;42.266;23.110;2023-09-19T02:33:42;48.35;;;23.20;;
43449;SDS011;29041;42.266;23.110;2023-09-19T02:36:29;7.15;;;4.95;;
43449;SDS011;29041;42.266;23.110;2023-09-19T02:39:18;4.45;;;2.75;;
43449;SDS011;29041;42.266;23.110;2023-09-19T02:42:05;6.72;;;3.25;;
43449;SDS011;29041;42.266;23.110;2023-09-19T02:44:52;5.30;;;2.72;;
43449;SDS011;29041;42.266;23.110;2023-09-19T02:47:40;5.75;;;4.00;;
43449;SDS011;29041;42.266;23.110;2023-09-19T02:50:27;7.40;;;5.00;;
43449;SDS011;29041;42.266;23.110;2023-09-19T02:53:15;7.45;;;4.18;;
43449;SDS011;29041;42.266;23.110;2023-09-19T02:56:03;6.35;;;3.88;;
43449;SDS011;29041;42.266;23.110;2023-09-19T02:58:51;9.23;;;5.05;;
43449;SDS011;29041;42.266;23.110;2023-09-19T03:01:38;8.15;;;3.47;;
43449;SDS011;29041;42.266;23.110;2023-09-19T03:04:26;5.07;;;3.50;;
43449;SDS011;29041;42.266;23.110;2023-09-19T03:07:14;10.38;;;3.97;;
43449;SDS011;29041;42.266;23.110;2023-09-19T03:10:01;6.72;;;3.65;;
43449;SDS011;29041;42.266;23.110;2023-09-19T03:12:50;5.95;;;3.58;;
43449;SDS011;29041;42.266;23.110;2023-09-19T03:15:40;16.67;;;9.07;;
43449;SDS011;29041;42.266;23.110;2023-09-19T03:18:29;5.63;;;4.00;;
43449;SDS011;29041;42.266;23.110;2023-09-19T03:21:17;6.30;;;3.47;;
43449;SDS011;29041;42.266;23.110;2023-09-19T03:24:05;8.20;;;4.03;;
43449;SDS011;29041;42.266;23.110;2023-09-19T03:26:52;5.75;;;3.55;;
43449;SDS011;29041;42.266;23.110;2023-09-19T03:29:41;14.05;;;6.88;;
43449;SDS011;29041;42.266;23.110;2023-09-19T03:32:28;9.75;;;4.00;;
43449;SDS011;29041;42.266;23.110;2023-09-19T03:35:15;10.02;;;4.60;;
43449;SDS011;29041;42.266;23.110;2023-09-19T03:38:03;6.55;;;4.13;;
43449;SDS011;29041;42.266;23.110;2023-09-19T03:40:51;7.85;;;4.70;;
43449;SDS011;29041;42.266;23.110;2023-09-19T03:43:38;5.10;;;3.40;;
43449;SDS011;29041;42.266;23.110;2023-09-19T03:46:32;8.98;;;3.65;;
43449;SDS011;29041;42.266;23.110;2023-09-19T03:49:22;11.45;;;5.88;;
43449;SDS011;29041;42.266;23.110;2023-09-19T03:52:09;6.72;;;3.63;;
43449;SDS011;29041;42.266;23.110;2023-09-19T03:54:56;5.75;;;3.83;;
43449;SDS011;29041;42.266;23.110;2023-09-19T03:57:47;25.15;;;12.85;;
43449;SDS011;29041;42.266;23.110;2023-09-19T04:00:35;10.40;;;6.75;;
43449;SDS011;29041;42.266;23.110;2023-09-19T04:03:23;20.52;;;10.85;;
43449;SDS011;29041;42.266;23.110;2023-09-19T04:06:19;12.30;;;4.70;;
43449;SDS011;29041;42.266;23.110;2023-09-19T04:09:07;9.07;;;4.10;;
43449;SDS011;29041;42.266;23.110;2023-09-19T04:11:54;7.10;;;3.97;;
43449;SDS011;29041;42.266;23.110;2023-09-19T04:14:41;10.50;;;6.32;;
43449;SDS011;29041;42.266;23.110;2023-09-19T04:17:29;5.10;;;3.40;;
43449;SDS011;29041;42.266;23.110;2023-09-19T04:20:18;5.05;;;3.95;;
43449;SDS011;29041;42.266;23.110;2023-09-19T04:23:05;5.35;;;3.75;;
43449;SDS011;29041;42.266;23.110;2023-09-19T04:25:53;7.95;;;3.72;;
43449;SDS011;29041;42.266;23.110;2023-09-19T04:28:40;6.20;;;4.20;;
43449;SDS011;29041;42.266;23.110;2023-09-19T04:31:29;8.32;;;4.43;;
43449;SDS011;29041;42.266;23.110;2023-09-19T04:34:17;8.43;;;4.38;;
43449;SDS011;29041;42.266;23.110;2023-09-19T04:37:05;5.60;;;4.65;;
43449;SDS011;29041;42.266;23.110;2023-09-19T04:39:52;5.20;;;3.83;;
43449;SDS011;29041;42.266;23.110;2023-09-19T04:42:40;8.93;;;3.78;;
43449;SDS011;29041;42.266;23.110;2023-09-19T04:45:27;3.78;;;3.25;;
43449;SDS011;29041;42.266;23.110;2023-09-19T04:48:15;7.32;;;3.63;;
43449;SDS011;29041;42.266;23.110;2023-09-19T04:51:02;4.38;;;3.47;;
43449;SDS011;29041;42.266;23.110;2023-09-19T04:53:51;9.00;;;4.15;;
43449;SDS011;29041;42.266;23.110;2023-09-19T04:56:38;7.60;;;4.43;;
43449;SDS011;29041;42.266;23.110;2023-09-19T04:59:25;7.20;;;4.38;;
43449;SDS011;29041;42.266;23.110;2023-09-19T05:02:13;6.85;;;5.13;;
43449;SDS011;29041;42.266;23.110;2023-09-19T05:05:02;11.30;;;4.70;;
43449;SDS011;29041;42.266;23.110;2023-09-19T05:07:50;7.82;;;5.00;;
43449;SDS011;29041;42.266;23.110;2023-09-19T05:10:41;6.70;;;4.60;;
43449;SDS011;29041;42.266;23.110;2023-09-19T05:13:28;10.82;;;5.20;;
43449;SDS011;29041;42.266;23.110;2023-09-19T05:16:16;8.80;;;4.95;;
43449;SDS011;29041;42.266;23.110;2023-09-19T05:19:04;12.90;;;7.28;;
43449;SDS011;29041;42.266;23.110;2023-09-19T05:21:51;7.53;;;4.80;;
43449;SDS011;29041;42.266;23.110;2023-09-19T05:24:38;9.07;;;4.53;;
43449;SDS011;29041;42.266;23.110;2023-09-19T05:27:27;6.25;;;4.25;;
43449;SDS011;29041;42.266;23.110;2023-09-19T05:30:14;8.10;;;3.58;;
43449;SDS011;29041;42.266;23.110;2023-09-19T05:33:01;6.53;;;4.20;;
43449;SDS011;29041;42.266;23.110;2023-09-19T05:35:51;5.60;;;3.70;;
43449;SDS011;29041;42.266;23.110;2023-09-19T05:38:39;5.03;;;3.60;;
43449;SDS011;29041;42.266;23.110;2023-09-19T05:41:27;5.65;;;4.10;;
43449;SDS011;29041;42.266;23.110;2023-09-19T05:44:16;6.60;;;4.43;;
43449;SDS011;29041;42.266;23.110;2023-09-19T05:47:05;7.00;;;4.82;;
43449;SDS011;29041;42.266;23.110;2023-09-19T05:49:54;8.10;;;4.25;;
43449;SDS011;29041;42.266;23.110;2023-09-19T05:52:41;12.13;;;5.35;;
43449;SDS011;29041;42.266;23.110;2023-09-19T05:55:29;6.13;;;4.22;;
43449;SDS011;29041;42.266;23.110;2023-09-19T05:58:16;6.15;;;4.28;;
43449;SDS011;29041;42.266;23.110;2023-09-19T06:01:07;5.43;;;3.85;;
43449;SDS011;29041;42.266;23.110;2023-09-19T06:03:55;5.85;;;4.00;;
43449;SDS011;29041;42.266;23.110;2023-09-19T06:06:42;7.60;;;4.68;;
43449;SDS011;29041;42.266;23.110;2023-09-19T06:09:30;6.80;;;4.55;;
43449;SDS011;29041;42.266;23.110;2023-09-19T06:12:17;8.38;;;4.80;;
43449;SDS011;29041;42.266;23.110;2023-09-19T06:15:05;5.80;;;4.22;;
43449;SDS011;29041;42.266;23.110;2023-09-19T06:17:55;5.97;;;4.07;;
43449;SDS011;29041;42.266;23.110;2023-09-19T06:20:43;10.20;;;4.05;;
43449;SDS011;29041;42.266;23.110;2023-09-19T06:23:30;5.72;;;4.03;;
43449;SDS011;29041;42.266;23.110;2023-09-19T06:26:17;8.10;;;4.35;;
43449;SDS011;29041;42.266;23.110;2023-09-19T06:29:04;7.63;;;4.28;;
43449;SDS011;29041;42.266;23.110;2023-09-19T06:31:53;8.35;;;4.75;;
43449;SDS011;29041;42.266;23.110;2023-09-19T06:34:41;7.63;;;4.60;;
43449;SDS011;29041;42.266;23.110;2023-09-19T06:37:29;8.10;;;4.15;;
43449;SDS011;29041;42.266;23.110;2023-09-19T06:40:33;7.38;;;4.13;;
43449;SDS011;29041;42.266;23.110;2023-09-19T06:43:20;9.05;;;4.93;;
43449;SDS011;29041;42.266;23.110;2023-09-19T06:46:09;6.47;;;4.70;;
43449;SDS011;29041;42.266;23.110;2023-09-19T06:48:58;14.82;;;5.90;;
43449;SDS011;29041;42.266;23.110;2023-09-19T06:51:46;7.43;;;4.75;;
43449;SDS011;29041;42.266;23.110;2023-09-19T06:54:34;9.82;;;4.82;;
43449;SDS011;29041;42.266;23.110;2023-09-19T06:57:22;7.30;;;4.88;;
43449;SDS011;29041;42.266;23.110;2023-09-19T07:00:10;9.88;;;5.20;;
43449;SDS011;29041;42.266;23.110;2023-09-19T07:03:04;11.25;;;5.53;;
43449;SDS011;29041;42.266;23.110;2023-09-19T07:08:45;5.97;;;3.78;;
43449;SDS011;29041;42.266;23.110;2023-09-19T07:11:32;6.43;;;5.22;;
43449;SDS011;29041;42.266;23.110;2023-09-19T07:14:19;6.90;;;4.13;;
43449;SDS011;29041;42.266;23.110;2023-09-19T07:17:07;8.43;;;4.60;;
43449;SDS011;29041;42.266;23.110;2023-09-19T07:19:54;6.65;;;4.63;;
43449;SDS011;29041;42.266;23.110;2023-09-19T07:22:41;6.47;;;4.13;;
43449;SDS011;29041;42.266;23.110;2023-09-19T07:25:32;5.20;;;4.18;;
43449;SDS011;29041;42.266;23.110;2023-09-19T07:28:19;7.60;;;4.68;;
43449;SDS011;29041;42.266;23.110;2023-09-19T07:31:06;5.22;;;4.55;;
43449;SDS011;29041;42.266;23.110;2023-09-19T07:33:55;9.23;;;4.32;;
43449;SDS011;29041;42.266;23.110;2023-09-19T07:36:42;7.90;;;4.22;;
43449;SDS011;29041;42.266;23.110;2023-09-19T07:39:30;8.13;;;4.13;;
43449;SDS011;29041;42.266;23.110;2023-09-19T07:42:18;8.77;;;4.75;;
43449;SDS011;29041;42.266;23.110;2023-09-19T07:45:06;8.30;;;4.55;;
43449;SDS011;29041;42.266;23.110;2023-09-19T07:47:53;7.03;;;4.72;;
43449;SDS011;29041;42.266;23.110;2023-09-19T07:50:41;7.13;;;4.53;;
43449;SDS011;29041;42.266;23.110;2023-09-19T07:53:29;7.75;;;5.15;;
43449;SDS011;29041;42.266;23.110;2023-09-19T07:56:20;11.65;;;4.47;;
43449;SDS011;29041;42.266;23.110;2023-09-19T07:59:09;9.63;;;4.60;;
43449;SDS011;29041;42.266;23.110;2023-09-19T08:01:57;5.43;;;4.00;;
43449;SDS011;29041;42.266;23.110;2023-09-19T08:04:46;6.03;;;4.15;;
43449;SDS011;29041;42.266;23.110;2023-09-19T08:07:34;6.40;;;4.13;;
43449;SDS011;29041;42.266;23.110;2023-09-19T08:10:21;8.65;;;4.38;;
43449;SDS011;29041;42.266;23.110;2023-09-19T08:13:13;8.73;;;4.68;;
43449;SDS011;29041;42.266;23.110;2023-09-19T08:16:04;7.72;;;5.22;;
43449;SDS011;29041;42.266;23.110;2023-09-19T08:18:51;7.78;;;4.10;;
43449;SDS011;29041;42.266;23.110;2023-09-19T08:21:40;6.18;;;4.00;;
43449;SDS011;29041;42.266;23.110;2023-09-19T08:24:31;7.07;;;4.25;;
43449;SDS011;29041;42.266;23.110;2023-09-19T08:27:19;7.70;;;5.15;;
43449;SDS011;29041;42.266;23.110;2023-09-19T08:30:07;15.20;;;4.38;;
43449;SDS011;29041;42.266;23.110;2023-09-19T08:32:58;17.20;;;5.00;;
43449;SDS011;29041;42.266;23.110;2023-09-19T08:35:46;11.73;;;4.25;;
43449;SDS011;29041;42.266;23.110;2023-09-19T08:38:34;6.43;;;3.83;;
43449;SDS011;29041;42.266;23.110;2023-09-19T08:41:22;7.00;;;3.80;;
43449;SDS011;29041;42.266;23.110;2023-09-19T08:44:09;13.13;;;4.35;;
43449;SDS011;29041;42.266;23.110;2023-09-19T08:47:00;7.90;;;4.00;;
43449;SDS011;29041;42.266;23.110;2023-09-19T08:49:59;20.98;;;9.63;;
43449;SDS011;29041;42.266;23.110;2023-09-19T08:53:00;12.05;;;4.72;;
43449;SDS011;29041;42.266;23.110;2023-09-19T08:55:48;9.27;;;4.75;;
43449;SDS011;29041;42.266;23.110;2023-09-19T08:58:44;7.32;;;3.92;;
43449;SDS011;29041;42.266;23.110;2023-09-19T09:01:33;5.88;;;3.65;;
43449;SDS011;29041;42.266;23.110;2023-09-19T09:04:21;9.57;;;4.38;;
43449;SDS011;29041;42.266;23.110;2023-09-19T09:07:11;5.53;;;3.83;;
43449;SDS011;29041;42.266;23.110;2023-09-19T09:10:02;6.50;;;4.18;;
43449;SDS011;29041;42.266;23.110;2023-09-19T09:12:51;10.13;;;4.05;;
43449;SDS011;29041;42.266;23.110;2023-09-19T09:15:40;5.15;;;3.30;;
43449;SDS011;29041;42.266;23.110;2023-09-19T09:18:30;3.83;;;2.95;;
43449;SDS011;29041;42.266;23.110;2023-09-19T09:21:17;7.63;;;4.07;;
43449;SDS011;29041;42.266;23.110;2023-09-19T09:27:19;8.88;;;3.75;;
43449;SDS011;29041;42.266;23.110;2023-09-19T09:30:09;9.27;;;3.53;;
43449;SDS011;29041;42.266;23.110;2023-09-19T09:33:17;24.52;;;4.20;;
43449;SDS011;29041;42.266;23.110;2023-09-19T09:36:07;4.25;;;3.53;;
43449;SDS011;29041;42.266;23.110;2023-09-19T09:38:58;5.55;;;3.42;;
43449;SDS011;29041;42.266;23.110;2023-09-19T09:44:53;10.30;;;3.78;;
43449;SDS011;29041;42.266;23.110;2023-09-19T09:47:59;4.82;;;3.38;;
43449;SDS011;29041;42.266;23.110;2023-09-19T09:50:49;6.85;;;3.83;;
43449;SDS011;29041;42.266;23.110;2023-09-19T09:53:41;6.78;;;3.40;;
43449;SDS011;29041;42.266;23.110;2023-09-19T09:56:31;5.43;;;3.30;;
43449;SDS011;29041;42.266;23.110;2023-09-19T09:59:21;10.10;;;4.30;;
43449;SDS011;29041;42.266;23.110;2023-09-19T10:02:09;5.18;;;3.63;;
43449;SDS011;29041;42.266;23.110;2023-09-19T10:04:59;5.10;;;4.22;;
43449;SDS011;29041;42.266;23.110;2023-09-19T10:07:59;6.68;;;3.97;;
43449;SDS011;29041;42.266;23.110;2023-09-19T10:10:58;4.15;;;3.70;;
43449;SDS011;29041;42.266;23.110;2023-09-19T10:13:51;7.18;;;3.85;;
43449;SDS011;29041;42.266;23.110;2023-09-19T10:16:43;5.03;;;3.60;;
43449;SDS011;29041;42.266;23.110;2023-09-19T10:19:36;4.93;;;3.58;;
43449;SDS011;29041;42.266;23.110;2023-09-19T10:22:26;4.20;;;3.03;;
43449;SDS011;29041;42.266;23.110;2023-09-19T10:25:16;8.77;;;3.75;;
43449;SDS011;29041;42.266;23.110;2023-09-19T10:28:06;5.57;;;3.55;;
43449;SDS011;29041;42.266;23.110;2023-09-19T10:30:56;9.65;;;3.53;;
43449;SDS011;29041;42.266;23.110;2023-09-19T10:33:45;9.18;;;4.57;;
43449;SDS011;29041;42.266;23.110;2023-09-19T10:36:36;6.07;;;4.25;;
43449;SDS011;29041;42.266;23.110;2023-09-19T10:39:24;10.20;;;4.85;;
43449;SDS011;29041;42.266;23.110;2023-09-19T10:42:13;6.10;;;3.58;;
43449;SDS011;29041;42.266;23.110;2023-09-19T10:45:05;5.90;;;3.00;;
43449;SDS011;29041;42.266;23.110;2023-09-19T10:47:58;5.78;;;3.55;;
43449;SDS011;29041;42.266;23.110;2023-09-19T10:50:50;9.75;;;4.15;;
43449;SDS011;29041;42.266;23.110;2023-09-19T10:53:46;4.95;;;3.50;;
43449;SDS011;29041;42.266;23.110;2023-09-19T10:56:36;5.65;;;3.97;;
43449;SDS011;29041;42.266;23.110;2023-09-19T10:59:27;7.18;;;4.28;;
43449;SDS011;29041;42.266;23.110;2023-09-19T11:02:20;8.07;;;3.72;;
43449;SDS011;29041;42.266;23.110;2023-09-19T11:05:12;5.72;;;3.63;;
43449;SDS011;29041;42.266;23.110;2023-09-19T11:08:01;7.93;;;6.05;;
43449;SDS011;29041;42.266;23.110;2023-09-19T11:10:51;7.10;;;3.58;;
43449;SDS011;29041;42.266;23.110;2023-09-19T11:13:39;5.95;;;4.15;;
43449;SDS011;29041;42.266;23.110;2023-09-19T11:16:29;5.80;;;4.15;;
43449;SDS011;29041;42.266;23.110;2023-09-19T11:19:18;5.38;;;3.55;;
43449;SDS011;29041;42.266;23.110;2023-09-19T11:22:05;4.55;;;3.35;;
43449;SDS011;29041;42.266;23.110;2023-09-19T11:28:34;10.05;;;3.88;;
43449;SDS011;29041;42.266;23.110;2023-09-19T11:34:47;6.82;;;3.42;;
43449;SDS011;29041;42.266;23.110;2023-09-19T11:40:52;10.23;;;4.80;;
43449;SDS011;29041;42.266;23.110;2023-09-19T11:44:35;5.15;;;3.53;;
43449;SDS011;29041;42.266;23.110;2023-09-19T11:47:23;4.60;;;3.42;;
43449;SDS011;29041;42.266;23.110;2023-09-19T11:50:11;4.28;;;3.35;;
43449;SDS011;29041;42.266;23.110;2023-09-19T11:53:05;6.35;;;3.47;;
43449;SDS011;29041;42.266;23.110;2023-09-19T11:55:56;6.95;;;4.43;;
43449;SDS011;29041;42.266;23.110;2023-09-19T11:58:46;4.53;;;3.28;;
43449;SDS011;29041;42.266;23.110;2023-09-19T12:01:42;4.72;;;3.45;;
43449;SDS011;29041;42.266;23.110;2023-09-19T12:04:43;6.63;;;3.90;;
43449;SDS011;29041;42.266;23.110;2023-09-19T12:07:41;5.05;;;3.90;;
43449;SDS011;29041;42.266;23.110;2023-09-19T12:10:31;4.07;;;3.13;;
43449;SDS011;29041;42.266;23.110;2023-09-19T12:13:18;6.30;;;3.33;;
43449;SDS011;29041;42.266;23.110;2023-09-19T12:16:10;5.47;;;3.47;;
43449;SDS011;29041;42.266;23.110;2023-09-19T12:22:07;6.43;;;3.33;;
43449;SDS011;29041;42.266;23.110;2023-09-19T12:25:03;4.82;;;3.60;;
43449;SDS011;29041;42.266;23.110;2023-09-19T12:27:56;4.93;;;3.42;;
43449;SDS011;29041;42.266;23.110;2023-09-19T12:30:48;5.22;;;2.88;;
43449;SDS011;29041;42.266;23.110;2023-09-19T12:33:36;9.63;;;3.00;;
43449;SDS011;29041;42.266;23.110;2023-09-19T12:36:31;4.20;;;2.80;;
43449;SDS011;29041;42.266;23.110;2023-09-19T12:39:23;3.83;;;3.13;;
43449;SDS011;29041;42.266;23.110;2023-09-19T12:42:11;5.78;;;3.30;;
43449;SDS011;29041;42.266;23.110;2023-09-19T12:44:59;4.22;;;3.70;;
43449;SDS011;29041;42.266;23.110;2023-09-19T12:51:07;4.90;;;3.53;;
43449;SDS011;29041;42.266;23.110;2023-09-19T12:53:59;6.00;;;3.63;;
43449;SDS011;29041;42.266;23.110;2023-09-19T12:56:47;7.40;;;4.30;;
43449;SDS011;29041;42.266;23.110;2023-09-19T12:59:35;5.60;;;3.40;;
43449;SDS011;29041;42.266;23.110;2023-09-19T13:02:23;7.30;;;2.83;;
43449;SDS011;29041;42.266;23.110;2023-09-19T13:05:11;4.90;;;3.20;;
43449;SDS011;29041;42.266;23.110;2023-09-19T13:07:58;9.98;;;4.65;;
43449;SDS011;29041;42.266;23.110;2023-09-19T13:17:01;3.60;;;2.95;;
43449;SDS011;29041;42.266;23.110;2023-09-19T13:19:51;7.68;;;3.22;;
43449;SDS011;29041;42.266;23.110;2023-09-19T13:22:40;3.88;;;3.13;;
43449;SDS011;29041;42.266;23.110;2023-09-19T13:25:28;5.72;;;3.75;;
43449;SDS011;29041;42.266;23.110;2023-09-19T13:28:18;6.47;;;3.55;;
43449;SDS011;29041;42.266;23.110;2023-09-19T13:31:05;6.80;;;4.25;;
43449;SDS011;29041;42.266;23.110;2023-09-19T13:33:52;3.55;;;2.70;;
43449;SDS011;29041;42.266;23.110;2023-09-19T13:36:40;6.55;;;3.85;;
43449;SDS011;29041;42.266;23.110;2023-09-19T13:39:28;4.68;;;3.25;;
43449;SDS011;29041;42.266;23.110;2023-09-19T13:42:15;6.13;;;4.38;;
43449;SDS011;29041;42.266;23.110;2023-09-19T13:45:07;7.75;;;5.22;;
43449;SDS011;29041;42.266;23.110;2023-09-19T13:47:57;5.25;;;3.58;;
43449;SDS011;29041;42.266;23.110;2023-09-19T13:50:44;6.80;;;3.25;;
43449;SDS011;29041;42.266;23.110;2023-09-19T13:53:34;5.68;;;4.10;;
43449;SDS011;29041;42.266;23.110;2023-09-19T13:56:21;4.70;;;3.20;;
43449;SDS011;29041;42.266;23.110;2023-09-19T13:59:08;7.38;;;3.65;;
43449;SDS011;29041;42.266;23.110;2023-09-19T14:01:57;5.60;;;3.78;;
43449;SDS011;29041;42.266;23.110;2023-09-19T14:04:45;4.78;;;3.60;;
43449;SDS011;29041;42.266;23.110;2023-09-19T14:07:32;4.82;;;3.20;;
43449;SDS011;29041;42.266;23.110;2023-09-19T14:10:20;7.00;;;3.55;;
43449;SDS011;29041;42.266;23.110;2023-09-19T14:13:07;6.43;;;4.35;;
43449;SDS011;29041;42.266;23.110;2023-09-19T14:15:54;5.13;;;3.05;;
43449;SDS011;29041;42.266;23.110;2023-09-19T14:18:42;6.38;;;3.65;;
43449;SDS011;29041;42.266;23.110;2023-09-19T14:21:31;6.25;;;4.47;;
43449;SDS011;29041;42.266;23.110;2023-09-19T14:24:18;5.70;;;3.88;;
43449;SDS011;29041;42.266;23.110;2023-09-19T14:27:05;5.55;;;3.70;;
43449;SDS011;29041;42.266;23.110;2023-09-19T14:29:54;8.45;;;5.25;;
43449;SDS011;29041;42.266;23.110;2023-09-19T14:32:42;8.85;;;6.20;;
43449;SDS011;29041;42.266;23.110;2023-09-19T14:35:30;9.85;;;5.90;;
43449;SDS011;29041;42.266;23.110;2023-09-19T14:38:18;6.40;;;4.05;;
43449;SDS011;29041;42.266;23.110;2023-09-19T14:41:05;10.45;;;5.40;;
43449;SDS011;29041;42.266;23.110;2023-09-19T14:43:53;9.35;;;5.22;;
43449;SDS011;29041;42.266;23.110;2023-09-19T14:46:40;11.73;;;6.57;;
43449;SDS011;29041;42.266;23.110;2023-09-19T14:49:29;4.68;;;3.60;;
43449;SDS011;29041;42.266;23.110;2023-09-19T14:52:17;17.77;;;9.73;;
43449;SDS011;29041;42.266;23.110;2023-09-19T14:55:05;24.90;;;13.90;;
43449;SDS011;29041;42.266;23.110;2023-09-19T14:57:54;34.58;;;19.65;;
43449;SDS011;29041;42.266;23.110;2023-09-19T15:00:44;31.38;;;20.60;;
43449;SDS011;29041;42.266;23.110;2023-09-19T15:03:31;24.95;;;16.52;;
43449;SDS011;29041;42.266;23.110;2023-09-19T15:06:20;24.48;;;14.65;;
43449;SDS011;29041;42.266;23.110;2023-09-19T15:09:08;10.70;;;5.50;;
43449;SDS011;29041;42.266;23.110;2023-09-19T15:11:57;14.32;;;9.27;;
43449;SDS011;29041;42.266;23.110;2023-09-19T15:14:44;20.33;;;6.47;;
43449;SDS011;29041;42.266;23.110;2023-09-19T15:17:31;11.15;;;5.72;;
43449;SDS011;29041;42.266;23.110;2023-09-19T15:20:18;16.73;;;5.82;;
43449;SDS011;29041;42.266;23.110;2023-09-19T15:23:05;7.07;;;3.97;;
43449;SDS011;29041;42.266;23.110;2023-09-19T15:25:56;5.65;;;3.45;;
43449;SDS011;29041;42.266;23.110;2023-09-19T15:28:43;10.20;;;4.68;;
43449;SDS011;29041;42.266;23.110;2023-09-19T15:31:30;5.57;;;4.13;;
43449;SDS011;29041;42.266;23.110;2023-09-19T15:34:17;7.38;;;5.38;;
43449;SDS011;29041;42.266;23.110;2023-09-19T15:37:04;8.77;;;4.68;;
43449;SDS011;29041;42.266;23.110;2023-09-19T15:39:52;8.23;;;5.90;;
43449;SDS011;29041;42.266;23.110;2023-09-19T15:42:40;8.88;;;5.38;;
43449;SDS011;29041;42.266;23.110;2023-09-19T15:45:28;13.18;;;8.52;;
43449;SDS011;29041;42.266;23.110;2023-09-19T15:48:15;16.42;;;7.15;;
43449;SDS011;29041;42.266;23.110;2023-09-19T15:51:02;20.15;;;10.90;;
43449;SDS011;29041;42.266;23.110;2023-09-19T15:53:51;12.07;;;5.70;;
43449;SDS011;29041;42.266;23.110;2023-09-19T15:56:39;24.75;;;11.98;;
43449;SDS011;29041;42.266;23.110;2023-09-19T15:59:29;13.55;;;8.32;;
43449;SDS011;29041;42.266;23.110;2023-09-19T16:02:16;15.95;;;10.73;;
43449;SDS011;29041;42.266;23.110;2023-09-19T16:05:04;11.55;;;7.55;;
43449;SDS011;29041;42.266;23.110;2023-09-19T16:07:52;11.98;;;7.70;;
43449;SDS011;29041;42.266;23.110;2023-09-19T16:10:40;23.10;;;9.63;;
43449;SDS011;29041;42.266;23.110;2023-09-19T16:13:28;6.88;;;4.28;;
43449;SDS011;29041;42.266;23.110;2023-09-19T16:16:17;23.88;;;14.27;;
43449;SDS011;29041;42.266;23.110;2023-09-19T16:19:08;23.85;;;12.50;;
43449;SDS011;29041;42.266;23.110;2023-09-19T16:21:55;14.48;;;8.30;;
43449;SDS011;29041;42.266;23.110;2023-09-19T16:24:43;25.45;;;9.40;;
43449;SDS011;29041;42.266;23.110;2023-09-19T16:27:30;26.85;;;15.73;;
43449;SDS011;29041;42.266;23.110;2023-09-19T16:30:17;20.45;;;10.05;;
43449;SDS011;29041;42.266;23.110;2023-09-19T16:33:06;8.55;;;6.00;;
43449;SDS011;29041;42.266;23.110;2023-09-19T16:35:53;22.08;;;13.65;;
43449;SDS011;29041;42.266;23.110;2023-09-19T16:38:41;10.63;;;7.57;;
43449;SDS011;29041;42.266;23.110;2023-09-19T16:41:30;16.63;;;8.52;;
43449;SDS011;29041;42.266;23.110;2023-09-19T16:44:17;10.18;;;5.32;;
43449;SDS011;29041;42.266;23.110;2023-09-19T16:47:06;8.70;;;5.07;;
43449;SDS011;29041;42.266;23.110;2023-09-19T16:49:54;12.85;;;5.35;;
43449;SDS011;29041;42.266;23.110;2023-09-19T16:52:41;9.05;;;5.05;;
43449;SDS011;29041;42.266;23.110;2023-09-19T16:55:29;8.50;;;4.97;;
43449;SDS011;29041;42.266;23.110;2023-09-19T16:58:16;11.70;;;6.30;;
43449;SDS011;29041;42.266;23.110;2023-09-19T17:01:05;6.93;;;5.32;;
43449;SDS011;29041;42.266;23.110;2023-09-19T17:03:54;7.35;;;4.15;;
43449;SDS011;29041;42.266;23.110;2023-09-19T17:06:44;5.65;;;3.55;;
43449;SDS011;29041;42.266;23.110;2023-09-19T17:09:32;8.68;;;3.22;;
43449;SDS011;29041;42.266;23.110;2023-09-19T17:12:19;8.18;;;5.22;;
43449;SDS011;29041;42.266;23.110;2023-09-19T17:15:07;6.40;;;3.50;;
43449;SDS011;29041;42.266;23.110;2023-09-19T17:17:54;7.85;;;4.85;;